createdAt,value
2022-10-09T00:01:24.361Z,3.76
2022-10-09T00:03:54.142Z,3.62
2022-10-09T00:06:28.425Z,3.53
2022-10-09T00:08:54.917Z,3.56
2022-10-09T00:11:26.171Z,3.42
2022-10-09T00:13:55.273Z,3.37
2022-10-09T00:16:23.591Z,3.58
2022-10-09T00:18:51.203Z,3.62
2022-10-09T00:21:26.445Z,3.38
2022-10-09T00:23:56.464Z,3.23
2022-10-09T00:26:24.379Z,3.28
2022-10-09T00:28:50.977Z,3.39
2022-10-09T00:31:18.658Z,3.60
2022-10-09T00:33:45.437Z,3.78
2022-10-09T00:36:31.220Z,3.85
2022-10-09T00:38:57.838Z,3.92
2022-10-09T00:41:29.729Z,3.73
2022-10-09T00:43:59.450Z,3.48
2022-10-09T00:46:34.476Z,3.33
2022-10-09T00:49:30.812Z,3.36
2022-10-09T00:52:01.813Z,3.42
2022-10-09T00:54:37.093Z,3.19
2022-10-09T00:57:03.826Z,3.10
2022-10-09T00:59:31.845Z,3.08
2022-10-09T01:01:58.481Z,3.02
2022-10-09T01:04:25.203Z,3.04
2022-10-09T01:07:27.776Z,3.05
2022-10-09T01:09:59.607Z,3.21
2022-10-09T01:12:49.035Z,3.22
2022-10-09T01:15:33.354Z,3.21
2022-10-09T01:18:31.937Z,3.19
2022-10-09T01:21:11.583Z,3.07
2022-10-09T01:24:09.082Z,2.73
2022-10-09T01:27:05.717Z,2.64
2022-10-09T01:29:40.185Z,2.74
2022-10-09T01:32:12.908Z,2.72
2022-10-09T01:34:42.583Z,2.67
2022-10-09T01:37:12.915Z,2.62
2022-10-09T01:39:42.791Z,2.64
2022-10-09T01:42:13.836Z,2.48
2022-10-09T01:44:41.206Z,2.51
2022-10-09T01:47:15.872Z,2.37
2022-10-09T01:50:14.804Z,2.34
2022-10-09T01:52:52.090Z,2.11
2022-10-09T01:55:43.915Z,2.04
2022-10-09T01:58:19.022Z,2.24
2022-10-09T02:01:11.146Z,2.24
2022-10-09T02:03:42.544Z,2.25
2022-10-09T02:06:15.214Z,2.28
2022-10-09T02:08:45.464Z,2.23
2022-10-09T02:11:15.090Z,2.18
2022-10-09T02:13:43.987Z,2.27
2022-10-09T02:16:18.681Z,2.27
2022-10-09T02:18:55.849Z,2.21
2022-10-09T02:21:29.167Z,2.14
2022-10-09T02:23:58.743Z,2.16
2022-10-09T02:26:26.803Z,2.23
2022-10-09T02:28:54.065Z,2.38
2022-10-09T02:31:31.308Z,2.43
2022-10-09T02:34:08.841Z,2.56
2022-10-09T02:36:36.555Z,2.56
2022-10-09T02:39:06.207Z,2.55
2022-10-09T02:41:33.496Z,2.57
2022-10-09T02:44:00.552Z,2.60
2022-10-09T02:46:27.008Z,2.44
2022-10-09T02:48:53.935Z,2.43
2022-10-09T02:51:20.650Z,2.34
2022-10-09T02:53:47.355Z,2.20
2022-10-09T02:56:13.831Z,2.23
2022-10-09T02:58:40.580Z,2.35
2022-10-09T03:01:07.635Z,2.55
2022-10-09T03:03:34.140Z,2.71
2022-10-09T03:06:13.734Z,2.67
2022-10-09T03:08:44.473Z,2.75
2022-10-09T03:11:12.202Z,2.71
2022-10-09T03:13:39.647Z,2.47
2022-10-09T03:16:12.898Z,2.44
2022-10-09T03:18:40.527Z,2.59
2022-10-09T03:21:10.286Z,2.58
2022-10-09T03:23:37.907Z,2.44
2022-10-09T03:26:11.651Z,2.17
2022-10-09T03:28:42.129Z,2.10
2022-10-09T03:31:22.373Z,2.08
2022-10-09T03:33:57.341Z,1.97
2022-10-09T03:36:24.367Z,1.86
2022-10-09T03:38:50.880Z,1.88
2022-10-09T03:41:17.315Z,1.87
2022-10-09T03:43:43.781Z,1.86
2022-10-09T03:46:11.201Z,2.03
2022-10-09T03:48:38.233Z,2.00
2022-10-09T03:51:04.842Z,2.03
2022-10-09T03:53:31.550Z,2.01
2022-10-09T03:55:58.032Z,2.01
2022-10-09T03:58:24.994Z,2.06
2022-10-09T04:00:52.806Z,1.90
2022-10-09T04:03:20.811Z,1.89
2022-10-09T04:05:47.780Z,2.09
2022-10-09T04:08:14.293Z,2.11
2022-10-09T04:10:40.873Z,1.98
2022-10-09T04:13:07.319Z,1.83
2022-10-09T04:15:35.152Z,1.73
2022-10-09T04:18:01.707Z,1.64
2022-10-09T04:20:28.372Z,1.65
2022-10-09T04:22:54.822Z,1.73
2022-10-09T04:25:21.326Z,1.71
2022-10-09T04:27:47.736Z,1.72
2022-10-09T04:30:14.191Z,1.66
2022-10-09T04:32:40.618Z,1.65
2022-10-09T04:35:07.727Z,1.69
2022-10-09T04:37:36.522Z,1.65
2022-10-09T04:40:03.895Z,1.54
2022-10-09T04:42:30.523Z,1.68
2022-10-09T04:44:56.972Z,1.76
2022-10-09T04:47:24.180Z,1.80
2022-10-09T04:49:50.650Z,1.91
2022-10-09T04:52:17.108Z,1.91
2022-10-09T04:54:43.571Z,1.89
2022-10-09T04:57:10.004Z,1.88
2022-10-09T04:59:36.479Z,1.89
2022-10-09T05:02:03.631Z,1.93
2022-10-09T05:04:30.300Z,1.98
2022-10-09T05:06:56.748Z,1.90
2022-10-09T05:09:23.245Z,1.97
2022-10-09T05:11:49.818Z,2.02
2022-10-09T05:14:16.573Z,1.94
2022-10-09T05:17:08.152Z,1.81
2022-10-09T05:19:29.624Z,1.62
2022-10-09T05:21:56.137Z,1.57
2022-10-09T05:24:22.594Z,1.61
2022-10-09T05:26:49.055Z,1.63
2022-10-09T05:29:15.537Z,1.59
2022-10-09T05:31:48.370Z,1.51
2022-10-09T05:34:16.208Z,1.37
2022-10-09T05:36:42.763Z,1.32
2022-10-09T05:39:09.213Z,1.47
2022-10-09T05:41:35.655Z,1.47
2022-10-09T05:44:04.362Z,1.46
2022-10-09T05:46:30.941Z,1.48
2022-10-09T05:49:01.800Z,1.54
2022-10-09T05:51:31.542Z,1.54
2022-10-09T05:53:59.719Z,1.49
2022-10-09T05:56:35.895Z,1.35
2022-10-09T05:59:06.607Z,1.22
2022-10-09T06:01:42.545Z,1.26
2022-10-09T06:04:15.527Z,1.21
2022-10-09T06:06:42.779Z,1.49
2022-10-09T06:09:11.750Z,1.63
2022-10-09T06:11:40.408Z,1.80
2022-10-09T06:14:09.953Z,1.83
2022-10-09T06:16:40.935Z,1.87
2022-10-09T06:19:11.741Z,1.96
2022-10-09T06:21:38.300Z,2.04
2022-10-09T06:24:05.965Z,2.00
2022-10-09T06:26:33.769Z,1.91
2022-10-09T06:29:02.380Z,1.94
2022-10-09T06:31:32.574Z,1.90
2022-10-09T06:34:01.900Z,1.78
2022-10-09T06:36:32.453Z,1.74
2022-10-09T06:39:01.529Z,1.71
2022-10-09T06:41:29.981Z,1.69
2022-10-09T06:44:02.562Z,1.62
2022-10-09T06:46:36.198Z,1.58
2022-10-09T06:49:04.472Z,1.59
2022-10-09T06:51:33.736Z,1.67
2022-10-09T06:54:04.601Z,1.85
2022-10-09T06:56:32.320Z,2.05
2022-10-09T06:59:07.064Z,2.08
2022-10-09T07:01:34.277Z,2.14
2022-10-09T07:04:06.823Z,2.14
2022-10-09T07:06:38.499Z,2.18
2022-10-09T07:09:08.690Z,2.14
2022-10-09T07:11:38.447Z,2.15
2022-10-09T07:14:08.272Z,2.23
2022-10-09T07:16:38.894Z,2.29
2022-10-09T07:19:08.360Z,2.27
2022-10-09T07:21:35.786Z,2.25
2022-10-09T07:24:04.293Z,2.23
2022-10-09T07:26:34.122Z,2.26
2022-10-09T07:29:01.276Z,2.26
2022-10-09T07:31:27.971Z,2.29
2022-10-09T07:33:56.769Z,2.30
2022-10-09T07:36:23.897Z,2.38
2022-10-09T07:38:57.845Z,2.45
2022-10-09T07:41:28.657Z,2.55
2022-10-09T07:43:56.086Z,2.62
2022-10-09T07:46:27.615Z,2.64
2022-10-09T07:48:56.278Z,2.78
2022-10-09T07:51:29.168Z,2.83
2022-10-09T07:53:57.284Z,3.02
2022-10-09T07:56:29.297Z,3.11
2022-10-09T07:58:59.585Z,3.21
2022-10-09T08:01:30.105Z,3.39
2022-10-09T08:03:58.992Z,3.54
2022-10-09T08:06:26.575Z,3.65
2022-10-09T08:08:56.374Z,3.69
2022-10-09T08:11:25.744Z,3.69
2022-10-09T08:13:53.694Z,3.78
2022-10-09T08:16:23.278Z,3.92
2022-10-09T08:18:54.728Z,4.07
2022-10-09T08:21:21.235Z,4.18
2022-10-09T08:23:47.727Z,4.39
2022-10-09T08:26:22.593Z,4.50
2022-10-09T08:29:04.403Z,4.67
2022-10-09T08:31:32.142Z,4.79
2022-10-09T08:34:02.803Z,4.95
2022-10-09T08:36:30.456Z,5.13
2022-10-09T08:38:57.311Z,5.24
2022-10-09T08:41:48.872Z,5.26
2022-10-09T08:44:24.429Z,5.34
2022-10-09T08:47:03.712Z,5.46
2022-10-09T08:49:50.444Z,5.59
2022-10-09T08:52:50.477Z,5.57
2022-10-09T08:55:25.727Z,5.74
2022-10-09T08:57:56.597Z,5.90
2022-10-09T09:00:29.138Z,6.04
2022-10-09T09:03:12.805Z,6.18
2022-10-09T09:06:09.616Z,6.31
2022-10-09T09:09:07.613Z,6.39
2022-10-09T09:12:17.689Z,6.50
2022-10-09T09:15:07.438Z,6.60
2022-10-09T09:17:54.176Z,6.68
2022-10-09T09:20:53.073Z,6.78
2022-10-09T09:23:34.172Z,6.96
2022-10-09T09:26:02.053Z,7.13
2022-10-09T09:28:34.585Z,7.30
2022-10-09T09:31:35.491Z,7.27
2022-10-09T09:34:12.947Z,7.42
2022-10-09T09:36:44.857Z,7.54
2022-10-09T09:42:14.650Z,7.72
2022-10-09T09:45:02.977Z,7.84
2022-10-09T09:47:48.824Z,7.90
2022-10-09T09:50:42.237Z,7.97
2022-10-09T09:53:20.667Z,8.03
2022-10-09T09:55:53.606Z,8.22
2022-10-09T09:58:21.853Z,8.27
2022-10-09T10:01:00.840Z,8.36
2022-10-09T10:03:29.152Z,8.40
2022-10-09T10:05:55.727Z,8.58
2022-10-09T10:08:34.538Z,8.53
2022-10-09T10:11:06.912Z,8.73
2022-10-09T10:13:39.039Z,8.76
2022-10-09T10:16:09.251Z,8.85
2022-10-09T10:18:42.885Z,9.03
2022-10-09T10:21:14.896Z,9.15
2022-10-09T10:23:59.144Z,9.26
2022-10-09T10:26:58.295Z,9.33
2022-10-09T10:29:43.835Z,9.47
2022-10-09T10:32:34.770Z,9.46
2022-10-09T10:35:29.456Z,9.50
2022-10-09T10:38:06.242Z,9.65
2022-10-09T10:40:56.641Z,9.66
2022-10-09T10:43:50.476Z,9.72
2022-10-09T10:46:30.997Z,9.85
2022-10-09T10:49:01.474Z,10.01
2022-10-09T10:51:46.577Z,10.13
2022-10-09T10:54:22.286Z,10.24
2022-10-09T10:56:59.365Z,10.32
2022-10-09T10:59:51.407Z,10.48
2022-10-09T11:02:52.507Z,10.67
2022-10-09T11:05:35.590Z,10.67
2022-10-09T11:08:40.518Z,10.67
2022-10-09T11:11:29.417Z,10.69
2022-10-09T11:14:25.938Z,10.84
2022-10-09T11:17:42.440Z,10.68
2022-10-09T11:20:41.667Z,10.67
2022-10-09T11:23:55.727Z,10.75
2022-10-09T11:26:37.634Z,10.86
2022-10-09T11:29:19.584Z,10.94
2022-10-09T11:31:55.818Z,10.96
2022-10-09T11:34:42.718Z,11.07
2022-10-09T11:37:20.317Z,11.11
2022-10-09T11:39:46.972Z,11.28
2022-10-09T11:42:23.816Z,11.32
2022-10-09T11:45:14.351Z,11.30
2022-10-09T11:48:08.614Z,11.37
2022-10-09T11:51:12.535Z,11.43
2022-10-09T11:53:40.040Z,11.42
2022-10-09T11:56:23.983Z,11.34
2022-10-09T11:59:04.059Z,11.29
2022-10-09T12:01:42.910Z,11.37
2022-10-09T12:04:12.167Z,11.52
2022-10-09T12:06:55.685Z,11.59
2022-10-09T12:09:36.248Z,11.70
2022-10-09T12:12:23.633Z,11.65
2022-10-09T12:14:52.939Z,11.68
2022-10-09T12:17:22.354Z,11.79
2022-10-09T12:19:58.558Z,11.97
2022-10-09T12:23:13.946Z,11.87
2022-10-09T12:25:45.505Z,11.85
2022-10-09T12:28:27.867Z,11.80
2022-10-09T12:30:57.805Z,11.86
2022-10-09T12:33:34.939Z,12.02
2022-10-09T12:36:30.020Z,11.93
2022-10-09T12:38:56.651Z,12.09
2022-10-09T12:41:34.280Z,12.16
2022-10-09T12:44:02.331Z,12.21
2022-10-09T12:46:39.153Z,12.33
2022-10-09T12:49:20.426Z,12.17
2022-10-09T12:51:58.455Z,12.18
2022-10-09T12:54:27.636Z,12.29
2022-10-09T12:56:57.842Z,12.18
2022-10-09T12:59:28.547Z,12.43
2022-10-09T13:02:00.029Z,12.45
2022-10-09T13:04:32.065Z,12.40
2022-10-09T13:07:17.283Z,12.39
2022-10-09T13:09:43.895Z,12.43
2022-10-09T13:12:22.519Z,12.44
2022-10-09T13:14:53.171Z,12.56
2022-10-09T13:17:39.097Z,12.63
2022-10-09T13:20:11.715Z,12.51
2022-10-09T13:22:39.734Z,12.49
2022-10-09T13:25:07.250Z,12.47
2022-10-09T13:27:39.039Z,12.51
2022-10-09T13:30:07.352Z,12.51
2022-10-09T13:32:33.803Z,12.52
2022-10-09T13:35:00.259Z,12.48
2022-10-09T13:37:27.765Z,12.55
2022-10-09T13:39:57.255Z,12.64
2022-10-09T13:42:36.913Z,12.64
2022-10-09T13:45:05.406Z,12.70
2022-10-09T13:47:31.984Z,12.77
2022-10-09T13:49:58.996Z,12.77
2022-10-09T13:52:25.634Z,12.78
2022-10-09T13:54:52.280Z,12.70
2022-10-09T13:57:18.939Z,12.58
2022-10-09T13:59:45.680Z,12.63
2022-10-09T14:02:12.619Z,12.74
2022-10-09T14:04:39.229Z,12.84
2022-10-09T14:07:05.666Z,12.74
2022-10-09T14:09:32.163Z,12.71
2022-10-09T14:11:58.817Z,12.72
2022-10-09T14:14:25.246Z,12.65
2022-10-09T14:16:51.800Z,12.70
2022-10-09T14:19:18.306Z,12.73
2022-10-09T14:21:46.679Z,12.71
2022-10-09T14:24:14.318Z,12.62
2022-10-09T14:26:41.167Z,12.74
2022-10-09T14:29:07.727Z,12.80
2022-10-09T14:31:34.150Z,12.86
2022-10-09T14:34:00.669Z,12.86
2022-10-09T14:36:28.175Z,12.86
2022-10-09T14:38:55.590Z,12.91
2022-10-09T14:41:22.686Z,12.90
2022-10-09T14:43:57.633Z,12.86
2022-10-09T14:46:25.736Z,12.94
2022-10-09T14:48:55.571Z,12.89
2022-10-09T14:51:25.889Z,12.88
2022-10-09T14:53:59.082Z,12.89
2022-10-09T14:56:27.564Z,12.84
2022-10-09T14:58:54.660Z,12.79
2022-10-09T15:01:22.826Z,12.82
2022-10-09T15:03:49.566Z,12.78
2022-10-09T15:06:24.115Z,12.82
2022-10-09T15:08:55.935Z,12.90
2022-10-09T15:11:23.200Z,12.95
2022-10-09T15:13:49.669Z,12.93
2022-10-09T15:16:19.247Z,12.83
2022-10-09T15:18:49.337Z,12.88
2022-10-09T15:21:21.705Z,12.90
2022-10-09T15:23:50.810Z,12.80
2022-10-09T15:26:17.419Z,12.76
2022-10-09T15:28:44.884Z,12.72
2022-10-09T15:31:29.011Z,12.58
2022-10-09T15:33:57.689Z,12.42
2022-10-09T15:36:25.115Z,12.54
2022-10-09T15:38:51.570Z,12.52
2022-10-09T15:41:31.575Z,12.38
2022-10-09T15:44:04.707Z,12.29
2022-10-09T15:46:31.621Z,12.27
2022-10-09T15:48:58.564Z,12.17
2022-10-09T15:51:25.713Z,12.17
2022-10-09T15:53:52.907Z,12.20
2022-10-09T15:56:24.613Z,12.14
2022-10-09T15:58:53.035Z,12.15
2022-10-09T16:01:21.330Z,12.08
2022-10-09T16:03:48.709Z,11.92
2022-10-09T16:06:20.249Z,11.83
2022-10-09T16:08:47.320Z,11.66
2022-10-09T16:11:20.231Z,11.44
2022-10-09T16:13:49.893Z,11.29
2022-10-09T16:16:20.942Z,11.25
2022-10-09T16:18:48.403Z,11.23
2022-10-09T16:21:25.015Z,11.20
2022-10-09T16:23:57.360Z,10.84
2022-10-09T16:26:27.319Z,11.04
2022-10-09T16:28:53.960Z,11.04
2022-10-09T16:31:30.639Z,11.01
2022-10-09T16:33:57.516Z,10.50
2022-10-09T16:36:24.012Z,10.69
2022-10-09T16:38:50.472Z,10.64
2022-10-09T16:41:20.355Z,10.51
2022-10-09T16:43:49.693Z,10.42
2022-10-09T16:46:32.026Z,10.31
2022-10-09T16:49:00.807Z,10.08
2022-10-09T16:51:34.402Z,10.05
2022-10-09T16:54:04.663Z,9.94
2022-10-09T16:56:37.973Z,9.78
2022-10-09T16:59:12.006Z,9.82
2022-10-09T17:01:43.598Z,9.73
2022-10-09T17:04:11.482Z,9.71
2022-10-09T17:06:43.963Z,9.59
2022-10-09T17:09:14.059Z,9.61
2022-10-09T17:11:41.592Z,9.45
2022-10-09T17:14:08.126Z,9.37
2022-10-09T17:16:38.546Z,9.19
2022-10-09T17:19:06.241Z,9.25
2022-10-09T17:21:34.660Z,9.07
2022-10-09T17:24:06.436Z,9.06
2022-10-09T17:26:33.695Z,8.90
2022-10-09T17:29:02.011Z,8.80
2022-10-09T17:31:29.402Z,8.77
2022-10-09T17:34:02.689Z,8.71
2022-10-09T17:36:36.563Z,8.50
2022-10-09T17:39:07.837Z,8.37
2022-10-09T17:41:34.946Z,8.28
2022-10-09T17:44:01.645Z,8.32
2022-10-09T17:46:30.609Z,8.23
2022-10-09T17:48:59.525Z,8.08
2022-10-09T17:51:33.235Z,8.05
2022-10-09T17:54:12.205Z,7.98
2022-10-09T17:56:39.774Z,7.85
2022-10-09T17:59:06.631Z,7.75
2022-10-09T18:01:33.657Z,7.66
2022-10-09T18:04:00.543Z,7.59
2022-10-09T18:06:31.753Z,7.55
2022-10-09T18:08:58.662Z,7.46
2022-10-09T18:11:27.416Z,7.42
2022-10-09T18:13:54.400Z,7.40
2022-10-09T18:16:35.324Z,7.30
2022-10-09T18:19:13.423Z,7.23
2022-10-09T18:21:47.315Z,7.36
2022-10-09T18:24:14.688Z,7.36
2022-10-09T18:26:43.018Z,7.34
2022-10-09T18:29:09.510Z,7.29
2022-10-09T18:31:37.666Z,7.18
2022-10-09T18:34:04.265Z,7.11
2022-10-09T18:36:31.747Z,7.00
2022-10-09T18:39:10.038Z,6.91
2022-10-09T18:41:37.800Z,6.87
2022-10-09T18:44:17.294Z,6.76
2022-10-09T18:46:51.791Z,6.72
2022-10-09T18:49:22.510Z,6.72
2022-10-09T18:51:49.443Z,6.66
2022-10-09T18:54:19.339Z,6.64
2022-10-09T18:56:46.571Z,6.60
2022-10-09T18:59:18.163Z,6.58
2022-10-09T19:01:44.685Z,6.65
2022-10-09T19:04:11.532Z,6.77
2022-10-09T19:06:38.118Z,6.86
2022-10-09T19:09:05.179Z,6.89
2022-10-09T19:11:34.043Z,6.90
2022-10-09T19:14:01.759Z,6.89
2022-10-09T19:16:32.009Z,6.72
2022-10-09T19:18:58.990Z,6.65
2022-10-09T19:21:25.901Z,6.58
2022-10-09T19:23:54.080Z,6.58
2022-10-09T19:26:22.745Z,6.52
2022-10-09T19:28:49.234Z,6.62
2022-10-09T19:31:15.913Z,6.62
2022-10-09T19:33:43.192Z,6.63
2022-10-09T19:36:16.089Z,6.67
2022-10-09T19:38:43.159Z,6.67
2022-10-09T19:41:13.881Z,6.59
2022-10-09T19:43:41.396Z,6.47
2022-10-09T19:46:18.174Z,6.33
2022-10-09T19:48:45.796Z,6.20
2022-10-09T19:51:20.213Z,6.18
2022-10-09T19:53:47.292Z,6.30
2022-10-09T19:56:26.476Z,6.30
2022-10-09T19:58:55.194Z,6.42
2022-10-09T20:01:25.689Z,6.38
2022-10-09T20:04:07.521Z,6.23
2022-10-09T20:06:37.809Z,6.25
2022-10-09T20:09:06.811Z,6.26
2022-10-09T20:11:34.684Z,6.18
2022-10-09T20:14:02.053Z,6.17
2022-10-09T20:16:31.928Z,6.12
2022-10-09T20:19:01.008Z,6.03
2022-10-09T20:21:30.800Z,5.94
2022-10-09T20:23:58.684Z,5.91
2022-10-09T20:26:25.515Z,6.05
2022-10-09T20:28:55.412Z,6.12
2022-10-09T20:31:25.668Z,6.15
2022-10-09T20:33:54.167Z,6.05
2022-10-09T20:36:31.045Z,6.01
2022-10-09T20:39:00.839Z,5.94
2022-10-09T20:41:30.141Z,5.86
2022-10-09T20:44:00.356Z,5.80
2022-10-09T20:46:29.871Z,5.92
2022-10-09T20:48:56.790Z,5.93
2022-10-09T20:51:24.184Z,5.85
2022-10-09T20:53:56.813Z,5.71
2022-10-09T20:56:26.716Z,5.66
2022-10-09T20:58:55.057Z,5.60
2022-10-09T21:01:22.022Z,5.63
2022-10-09T21:03:49.222Z,5.74
2022-10-09T21:06:20.749Z,5.77
2022-10-09T21:08:47.359Z,5.76
2022-10-09T21:11:19.166Z,5.72
2022-10-09T21:13:46.543Z,5.72
2022-10-09T21:16:17.043Z,5.59
2022-10-09T21:18:43.542Z,5.55
2022-10-09T21:21:15.216Z,5.47
2022-10-09T21:23:42.955Z,5.47
2022-10-09T21:26:18.089Z,5.53
2022-10-09T21:28:45.869Z,5.53
2022-10-09T21:31:22.711Z,5.47
2022-10-09T21:33:49.738Z,5.63
2022-10-09T21:36:32.920Z,5.61
2022-10-09T21:38:59.542Z,5.44
2022-10-09T21:41:26.723Z,5.33
2022-10-09T21:43:53.416Z,5.24
2022-10-09T21:46:19.906Z,5.21
2022-10-09T21:48:46.396Z,5.26
2022-10-09T21:51:12.881Z,5.13
2022-10-09T21:53:39.340Z,5.13
2022-10-09T21:56:06.601Z,5.04
2022-10-09T21:58:33.108Z,5.05
2022-10-09T22:01:02.133Z,5.17
2022-10-09T22:03:32.640Z,5.10
2022-10-09T22:05:59.933Z,5.04
2022-10-09T22:08:27.275Z,5.09
2022-10-09T22:10:53.725Z,5.00
2022-10-09T22:13:21.569Z,4.97
2022-10-09T22:15:51.194Z,5.04
2022-10-09T22:18:19.473Z,5.00
2022-10-09T22:20:49.253Z,4.99
2022-10-09T22:23:19.041Z,4.95
2022-10-09T22:26:00.353Z,4.80
2022-10-09T22:28:26.911Z,4.74
2022-10-09T22:31:02.513Z,4.71
2022-10-09T22:33:29.774Z,4.70
2022-10-09T22:36:15.011Z,4.67
2022-10-09T22:38:43.690Z,4.74
2022-10-09T22:41:16.826Z,4.82
2022-10-09T22:43:47.739Z,4.83
2022-10-09T22:46:21.671Z,4.78
2022-10-09T22:48:48.525Z,4.74
2022-10-09T22:51:18.541Z,4.65
2022-10-09T22:53:46.431Z,4.77
2022-10-09T22:56:22.696Z,4.85
2022-10-09T22:58:51.640Z,4.79
2022-10-09T23:01:43.036Z,4.72
2022-10-09T23:04:13.223Z,4.57
2022-10-09T23:06:41.498Z,4.50
2022-10-09T23:09:12.165Z,4.45
2022-10-09T23:11:38.894Z,4.24
2022-10-09T23:14:05.709Z,4.26
2022-10-09T23:16:36.424Z,4.26
2022-10-09T23:19:07.098Z,4.40
2022-10-09T23:21:35.179Z,4.39
2022-10-09T23:24:01.949Z,4.49
2022-10-09T23:26:32.350Z,4.65
2022-10-09T23:29:09.482Z,4.55
2022-10-09T23:31:36.470Z,4.44
2022-10-09T23:34:05.974Z,4.45
2022-10-09T23:36:33.081Z,4.52
2022-10-09T23:39:02.919Z,4.59
2022-10-09T23:41:30.247Z,4.62
2022-10-09T23:43:57.075Z,4.69
2022-10-09T23:46:29.937Z,4.63
2022-10-09T23:48:56.574Z,4.58
2022-10-09T23:51:26.069Z,4.56
2022-10-09T23:53:53.194Z,4.33
2022-10-09T23:56:25.187Z,4.30
2022-10-09T23:58:53.709Z,4.48
